Jefferson, Louisiana
Current Conditions -  °F | °C
As of 11:53 AM on Monday 24 Nov 2014 (Local Time) from KMSY Reporting Station
Broken Clouds Broken Clouds  
Wind Chill: 69°   Ceiling: 25000
Heat Index: 69°   Visibility: 10mi
Dew Point: 52°   Wind: 14mph
Humidity: 54%   Direction: 320°NW
Pressure: 29.89"   Gusts: NA
Location:  29.96°N, 90.17°W
Report Text: KMSY 241753Z 32012KT 10SM BKN250 21/11 A2989 RMK AO2 SLP123 T02060111 10206 20183 50004
Loading
Personal Weather Stations






























Interactive Weather Map New forecast layout! Learn more

10-Day Weather Forecast

Advertisements
Track Severe Weather on mobile